Terminal Aerodrome Forecast
Issued by NWS

Home | Current Version | Previous Version | Text Only | Print | Product List | Glossary On
Versions: 1 2 3 4 5 6 7 8 9 10 11 12 13 14 15 16 17 18 19 20 21 22 23 24 25 26 27 28 29 30 31 32 33 34 35 36 37 38 39 40 41 42 43 44 45 46 47 48 49 50
036
FTUS46 KEKA 231749
TAFACV
TAF
KACV 231749Z 2318/2418 05005KT P6SM SKC
     FM231930 33007KT P6SM SKC
     FM232100 33012KT P6SM FEW250
     FM240000 35008KT P6SM FEW080
     FM240600 05003KT P6SM VCSH SCT025 BKN060 BKN250
     FM241200 08003KT P6SM -RA SCT025 OVC050
     FM241400 19006KT 6SM -RA BR SCT015 OVC025=

USA.gov is the U.S. government's official web portal to all federal, state and local government web resources and services.